sensor_id;sensor_type;location;lat;lon;timestamp;P1;durP1;ratioP1;P2;durP2;ratioP2
19739;SDS011;10027;51.066;13.768;2023-05-10T00:01:17;2.40;;;2.07;;
19739;SDS011;10027;51.066;13.768;2023-05-10T00:03:44;2.03;;;1.83;;
19739;SDS011;10027;51.066;13.768;2023-05-10T00:06:11;2.13;;;1.73;;
19739;SDS011;10027;51.066;13.768;2023-05-10T00:08:38;1.80;;;1.70;;
19739;SDS011;10027;51.066;13.768;2023-05-10T00:11:06;2.27;;;1.80;;
19739;SDS011;10027;51.066;13.768;2023-05-10T00:13:33;2.20;;;1.80;;
19739;SDS011;10027;51.066;13.768;2023-05-10T00:16:00;2.23;;;1.70;;
19739;SDS011;10027;51.066;13.768;2023-05-10T00:18:27;3.03;;;1.87;;
19739;SDS011;10027;51.066;13.768;2023-05-10T00:20:54;2.33;;;1.80;;
19739;SDS011;10027;51.066;13.768;2023-05-10T00:23:21;3.57;;;1.73;;
19739;SDS011;10027;51.066;13.768;2023-05-10T00:25:48;2.00;;;1.60;;
19739;SDS011;10027;51.066;13.768;2023-05-10T00:28:16;5.07;;;1.60;;
19739;SDS011;10027;51.066;13.768;2023-05-10T00:30:43;2.13;;;1.67;;
19739;SDS011;10027;51.066;13.768;2023-05-10T00:33:10;2.70;;;1.80;;
19739;SDS011;10027;51.066;13.768;2023-05-10T00:35:37;2.00;;;1.80;;
19739;SDS011;10027;51.066;13.768;2023-05-10T00:38:04;4.30;;;1.90;;
19739;SDS011;10027;51.066;13.768;2023-05-10T00:40:32;2.10;;;1.90;;
19739;SDS011;10027;51.066;13.768;2023-05-10T00:42:59;1.70;;;1.50;;
19739;SDS011;10027;51.066;13.768;2023-05-10T00:45:27;2.73;;;1.80;;
19739;SDS011;10027;51.066;13.768;2023-05-10T00:47:54;2.27;;;1.60;;
19739;SDS011;10027;51.066;13.768;2023-05-10T00:50:22;2.50;;;1.80;;
19739;SDS011;10027;51.066;13.768;2023-05-10T00:52:50;1.97;;;1.60;;
19739;SDS011;10027;51.066;13.768;2023-05-10T00:55:17;2.83;;;1.70;;
19739;SDS011;10027;51.066;13.768;2023-05-10T00:57:44;3.37;;;1.60;;
19739;SDS011;10027;51.066;13.768;2023-05-10T01:00:12;1.80;;;1.60;;
19739;SDS011;10027;51.066;13.768;2023-05-10T01:02:44;2.20;;;1.60;;
19739;SDS011;10027;51.066;13.768;2023-05-10T01:05:12;15.23;;;1.77;;
19739;SDS011;10027;51.066;13.768;2023-05-10T01:07:40;2.23;;;1.70;;
19739;SDS011;10027;51.066;13.768;2023-05-10T01:10:07;2.30;;;1.80;;
19739;SDS011;10027;51.066;13.768;2023-05-10T01:12:35;3.00;;;1.60;;
19739;SDS011;10027;51.066;13.768;2023-05-10T01:15:04;2.20;;;1.50;;
19739;SDS011;10027;51.066;13.768;2023-05-10T01:17:32;2.30;;;1.80;;
19739;SDS011;10027;51.066;13.768;2023-05-10T01:19:59;2.00;;;1.57;;
19739;SDS011;10027;51.066;13.768;2023-05-10T01:25:22;1.90;;;1.60;;
19739;SDS011;10027;51.066;13.768;2023-05-10T01:31:26;1.80;;;1.50;;
19739;SDS011;10027;51.066;13.768;2023-05-10T01:34:20;2.77;;;1.57;;
19739;SDS011;10027;51.066;13.768;2023-05-10T01:36:32;1.87;;;1.60;;
19739;SDS011;10027;51.066;13.768;2023-05-10T01:39:08;2.20;;;1.50;;
19739;SDS011;10027;51.066;13.768;2023-05-10T01:46:41;2.97;;;1.77;;
19739;SDS011;10027;51.066;13.768;2023-05-10T01:49:09;1.60;;;1.40;;
19739;SDS011;10027;51.066;13.768;2023-05-10T01:51:41;1.63;;;1.53;;
19739;SDS011;10027;51.066;13.768;2023-05-10T01:54:09;2.60;;;1.60;;
19739;SDS011;10027;51.066;13.768;2023-05-10T01:56:37;2.40;;;1.53;;
19739;SDS011;10027;51.066;13.768;2023-05-10T01:59:05;1.77;;;1.43;;
19739;SDS011;10027;51.066;13.768;2023-05-10T02:01:33;1.70;;;1.57;;
19739;SDS011;10027;51.066;13.768;2023-05-10T02:04:00;2.50;;;1.47;;
19739;SDS011;10027;51.066;13.768;2023-05-10T02:06:28;1.80;;;1.70;;
19739;SDS011;10027;51.066;13.768;2023-05-10T02:08:56;2.10;;;1.57;;
19739;SDS011;10027;51.066;13.768;2023-05-10T02:11:24;1.80;;;1.50;;
19739;SDS011;10027;51.066;13.768;2023-05-10T02:13:52;1.60;;;1.50;;
19739;SDS011;10027;51.066;13.768;2023-05-10T02:16:21;2.40;;;1.90;;
19739;SDS011;10027;51.066;13.768;2023-05-10T02:18:50;1.70;;;1.50;;
19739;SDS011;10027;51.066;13.768;2023-05-10T02:21:19;2.00;;;1.70;;
19739;SDS011;10027;51.066;13.768;2023-05-10T02:23:48;2.00;;;1.40;;
19739;SDS011;10027;51.066;13.768;2023-05-10T02:26:16;2.10;;;1.60;;
19739;SDS011;10027;51.066;13.768;2023-05-10T02:28:44;2.13;;;1.57;;
19739;SDS011;10027;51.066;13.768;2023-05-10T02:31:12;2.17;;;1.40;;
19739;SDS011;10027;51.066;13.768;2023-05-10T02:33:40;1.87;;;1.67;;
19739;SDS011;10027;51.066;13.768;2023-05-10T02:36:08;1.80;;;1.50;;
19739;SDS011;10027;51.066;13.768;2023-05-10T02:38:36;1.60;;;1.40;;
19739;SDS011;10027;51.066;13.768;2023-05-10T02:41:03;2.07;;;1.70;;
19739;SDS011;10027;51.066;13.768;2023-05-10T02:43:32;2.17;;;1.43;;
19739;SDS011;10027;51.066;13.768;2023-05-10T02:46:00;1.87;;;1.67;;
19739;SDS011;10027;51.066;13.768;2023-05-10T02:48:27;3.57;;;1.90;;
19739;SDS011;10027;51.066;13.768;2023-05-10T02:50:55;2.17;;;1.80;;
19739;SDS011;10027;51.066;13.768;2023-05-10T02:53:23;1.90;;;1.50;;
19739;SDS011;10027;51.066;13.768;2023-05-10T02:55:54;1.70;;;1.60;;
19739;SDS011;10027;51.066;13.768;2023-05-10T02:58:24;2.53;;;1.70;;
19739;SDS011;10027;51.066;13.768;2023-05-10T03:00:51;1.90;;;1.67;;
19739;SDS011;10027;51.066;13.768;2023-05-10T03:03:19;2.37;;;1.70;;
19739;SDS011;10027;51.066;13.768;2023-05-10T03:05:47;2.90;;;1.57;;
19739;SDS011;10027;51.066;13.768;2023-05-10T03:08:14;3.20;;;1.57;;
19739;SDS011;10027;51.066;13.768;2023-05-10T03:10:45;2.33;;;1.87;;
19739;SDS011;10027;51.066;13.768;2023-05-10T03:15:45;2.30;;;1.67;;
19739;SDS011;10027;51.066;13.768;2023-05-10T03:21:04;2.50;;;1.80;;
19739;SDS011;10027;51.066;13.768;2023-05-10T03:23:37;1.67;;;1.57;;
19739;SDS011;10027;51.066;13.768;2023-05-10T03:26:05;3.30;;;1.70;;
19739;SDS011;10027;51.066;13.768;2023-05-10T03:28:34;5.27;;;1.70;;
19739;SDS011;10027;51.066;13.768;2023-05-10T03:31:02;2.23;;;1.70;;
19739;SDS011;10027;51.066;13.768;2023-05-10T03:33:32;2.43;;;1.67;;
19739;SDS011;10027;51.066;13.768;2023-05-10T03:35:59;2.47;;;1.60;;
19739;SDS011;10027;51.066;13.768;2023-05-10T03:38:26;2.10;;;1.57;;
19739;SDS011;10027;51.066;13.768;2023-05-10T03:40:55;3.50;;;1.70;;
19739;SDS011;10027;51.066;13.768;2023-05-10T03:43:22;1.60;;;1.50;;
19739;SDS011;10027;51.066;13.768;2023-05-10T03:45:49;2.30;;;1.60;;
19739;SDS011;10027;51.066;13.768;2023-05-10T03:48:17;1.87;;;1.67;;
19739;SDS011;10027;51.066;13.768;2023-05-10T03:50:44;2.30;;;1.73;;
19739;SDS011;10027;51.066;13.768;2023-05-10T03:53:11;2.93;;;1.83;;
19739;SDS011;10027;51.066;13.768;2023-05-10T03:55:39;2.93;;;1.60;;
19739;SDS011;10027;51.066;13.768;2023-05-10T03:58:06;3.13;;;1.67;;
19739;SDS011;10027;51.066;13.768;2023-05-10T04:00:33;1.57;;;1.47;;
19739;SDS011;10027;51.066;13.768;2023-05-10T04:03:01;1.83;;;1.60;;
19739;SDS011;10027;51.066;13.768;2023-05-10T04:05:28;1.90;;;1.70;;
19739;SDS011;10027;51.066;13.768;2023-05-10T04:07:55;1.53;;;1.40;;
19739;SDS011;10027;51.066;13.768;2023-05-10T04:10:23;1.50;;;1.40;;
19739;SDS011;10027;51.066;13.768;2023-05-10T04:12:50;1.93;;;1.73;;
19739;SDS011;10027;51.066;13.768;2023-05-10T04:15:17;2.20;;;1.60;;
19739;SDS011;10027;51.066;13.768;2023-05-10T04:17:44;2.37;;;1.70;;
19739;SDS011;10027;51.066;13.768;2023-05-10T04:20:12;1.50;;;1.40;;
19739;SDS011;10027;51.066;13.768;2023-05-10T04:22:39;1.53;;;1.40;;
19739;SDS011;10027;51.066;13.768;2023-05-10T04:25:07;6.33;;;1.60;;
19739;SDS011;10027;51.066;13.768;2023-05-10T04:27:34;2.10;;;1.53;;
19739;SDS011;10027;51.066;13.768;2023-05-10T04:30:01;2.47;;;1.67;;
19739;SDS011;10027;51.066;13.768;2023-05-10T04:32:29;1.77;;;1.40;;
19739;SDS011;10027;51.066;13.768;2023-05-10T04:34:56;1.67;;;1.43;;
19739;SDS011;10027;51.066;13.768;2023-05-10T04:37:23;2.47;;;1.57;;
19739;SDS011;10027;51.066;13.768;2023-05-10T04:39:50;1.60;;;1.50;;
19739;SDS011;10027;51.066;13.768;2023-05-10T04:42:17;1.57;;;1.40;;
19739;SDS011;10027;51.066;13.768;2023-05-10T04:44:44;1.70;;;1.50;;
19739;SDS011;10027;51.066;13.768;2023-05-10T04:47:11;1.87;;;1.50;;
19739;SDS011;10027;51.066;13.768;2023-05-10T04:49:39;1.87;;;1.70;;
19739;SDS011;10027;51.066;13.768;2023-05-10T04:52:06;2.10;;;1.50;;
19739;SDS011;10027;51.066;13.768;2023-05-10T04:54:33;1.60;;;1.50;;
19739;SDS011;10027;51.066;13.768;2023-05-10T04:57:00;1.97;;;1.43;;
19739;SDS011;10027;51.066;13.768;2023-05-10T04:59:27;1.63;;;1.40;;
19739;SDS011;10027;51.066;13.768;2023-05-10T05:01:55;2.80;;;1.70;;
19739;SDS011;10027;51.066;13.768;2023-05-10T05:04:22;3.43;;;1.43;;
19739;SDS011;10027;51.066;13.768;2023-05-10T05:06:50;2.77;;;1.67;;
19739;SDS011;10027;51.066;13.768;2023-05-10T05:09:19;2.13;;;1.37;;
19739;SDS011;10027;51.066;13.768;2023-05-10T05:11:46;2.90;;;1.80;;
19739;SDS011;10027;51.066;13.768;2023-05-10T05:14:13;2.50;;;1.60;;
19739;SDS011;10027;51.066;13.768;2023-05-10T05:16:40;3.00;;;1.40;;
19739;SDS011;10027;51.066;13.768;2023-05-10T05:19:07;2.33;;;1.83;;
19739;SDS011;10027;51.066;13.768;2023-05-10T05:21:34;4.03;;;1.40;;
19739;SDS011;10027;51.066;13.768;2023-05-10T05:24:02;2.30;;;1.60;;
19739;SDS011;10027;51.066;13.768;2023-05-10T05:26:29;1.50;;;1.40;;
19739;SDS011;10027;51.066;13.768;2023-05-10T05:28:56;1.53;;;1.43;;
19739;SDS011;10027;51.066;13.768;2023-05-10T05:31:23;2.70;;;1.50;;
19739;SDS011;10027;51.066;13.768;2023-05-10T05:33:50;3.97;;;1.70;;
19739;SDS011;10027;51.066;13.768;2023-05-10T05:36:17;1.93;;;1.50;;
19739;SDS011;10027;51.066;13.768;2023-05-10T05:38:45;1.83;;;1.63;;
19739;SDS011;10027;51.066;13.768;2023-05-10T05:41:12;3.27;;;1.57;;
19739;SDS011;10027;51.066;13.768;2023-05-10T05:43:39;2.03;;;1.50;;
19739;SDS011;10027;51.066;13.768;2023-05-10T05:46:06;2.00;;;1.60;;
19739;SDS011;10027;51.066;13.768;2023-05-10T05:48:34;2.40;;;1.70;;
19739;SDS011;10027;51.066;13.768;2023-05-10T05:51:01;2.67;;;1.70;;
19739;SDS011;10027;51.066;13.768;2023-05-10T05:53:32;3.20;;;1.53;;
19739;SDS011;10027;51.066;13.768;2023-05-10T05:55:59;2.60;;;1.50;;
19739;SDS011;10027;51.066;13.768;2023-05-10T05:58:26;2.30;;;1.50;;
19739;SDS011;10027;51.066;13.768;2023-05-10T06:00:54;2.20;;;1.70;;
19739;SDS011;10027;51.066;13.768;2023-05-10T06:03:21;2.60;;;1.87;;
19739;SDS011;10027;51.066;13.768;2023-05-10T06:05:48;1.77;;;1.53;;
19739;SDS011;10027;51.066;13.768;2023-05-10T06:08:15;2.00;;;1.80;;
19739;SDS011;10027;51.066;13.768;2023-05-10T06:10:42;2.77;;;1.70;;
19739;SDS011;10027;51.066;13.768;2023-05-10T06:13:10;2.70;;;1.57;;
19739;SDS011;10027;51.066;13.768;2023-05-10T06:15:37;2.20;;;1.70;;
19739;SDS011;10027;51.066;13.768;2023-05-10T06:18:05;2.53;;;1.80;;
19739;SDS011;10027;51.066;13.768;2023-05-10T06:20:32;2.73;;;1.60;;
19739;SDS011;10027;51.066;13.768;2023-05-10T06:22:59;1.90;;;1.70;;
19739;SDS011;10027;51.066;13.768;2023-05-10T06:25:26;2.33;;;1.67;;
19739;SDS011;10027;51.066;13.768;2023-05-10T06:27:53;2.00;;;1.60;;
19739;SDS011;10027;51.066;13.768;2023-05-10T06:30:24;3.10;;;1.60;;
19739;SDS011;10027;51.066;13.768;2023-05-10T06:32:55;3.47;;;1.80;;
19739;SDS011;10027;51.066;13.768;2023-05-10T06:35:23;2.60;;;1.60;;
19739;SDS011;10027;51.066;13.768;2023-05-10T06:37:51;2.07;;;1.87;;
19739;SDS011;10027;51.066;13.768;2023-05-10T06:40:18;1.63;;;1.50;;
19739;SDS011;10027;51.066;13.768;2023-05-10T06:42:46;3.13;;;1.70;;
19739;SDS011;10027;51.066;13.768;2023-05-10T06:45:13;3.93;;;1.43;;
19739;SDS011;10027;51.066;13.768;2023-05-10T06:47:41;1.47;;;1.37;;
19739;SDS011;10027;51.066;13.768;2023-05-10T06:50:09;1.97;;;1.67;;
19739;SDS011;10027;51.066;13.768;2023-05-10T06:52:37;2.00;;;1.80;;
19739;SDS011;10027;51.066;13.768;2023-05-10T06:55:05;2.23;;;1.90;;
19739;SDS011;10027;51.066;13.768;2023-05-10T06:57:32;1.77;;;1.67;;
19739;SDS011;10027;51.066;13.768;2023-05-10T07:00:00;2.07;;;1.70;;
19739;SDS011;10027;51.066;13.768;2023-05-10T07:02:27;2.13;;;1.87;;
19739;SDS011;10027;51.066;13.768;2023-05-10T07:04:55;2.40;;;1.87;;
19739;SDS011;10027;51.066;13.768;2023-05-10T07:07:25;2.57;;;1.73;;
19739;SDS011;10027;51.066;13.768;2023-05-10T07:09:52;2.33;;;1.90;;
19739;SDS011;10027;51.066;13.768;2023-05-10T07:12:19;3.30;;;2.37;;
19739;SDS011;10027;51.066;13.768;2023-05-10T07:14:46;1.90;;;1.70;;
19739;SDS011;10027;51.066;13.768;2023-05-10T07:17:13;2.67;;;1.90;;
19739;SDS011;10027;51.066;13.768;2023-05-10T07:19:41;4.07;;;1.80;;
19739;SDS011;10027;51.066;13.768;2023-05-10T07:22:08;2.40;;;2.00;;
19739;SDS011;10027;51.066;13.768;2023-05-10T07:24:35;2.83;;;1.87;;
19739;SDS011;10027;51.066;13.768;2023-05-10T07:27:02;1.90;;;1.67;;
19739;SDS011;10027;51.066;13.768;2023-05-10T07:29:30;2.27;;;2.07;;
19739;SDS011;10027;51.066;13.768;2023-05-10T07:31:57;2.10;;;1.90;;
19739;SDS011;10027;51.066;13.768;2023-05-10T07:34:24;3.07;;;1.97;;
19739;SDS011;10027;51.066;13.768;2023-05-10T07:36:52;2.17;;;1.90;;
19739;SDS011;10027;51.066;13.768;2023-05-10T07:39:19;2.33;;;1.90;;
19739;SDS011;10027;51.066;13.768;2023-05-10T07:41:53;2.60;;;2.10;;
19739;SDS011;10027;51.066;13.768;2023-05-10T07:44:20;2.37;;;2.13;;
19739;SDS011;10027;51.066;13.768;2023-05-10T07:46:47;2.33;;;1.97;;
19739;SDS011;10027;51.066;13.768;2023-05-10T07:49:15;3.23;;;2.00;;
19739;SDS011;10027;51.066;13.768;2023-05-10T07:51:42;2.07;;;1.87;;
19739;SDS011;10027;51.066;13.768;2023-05-10T07:54:09;3.70;;;2.10;;
19739;SDS011;10027;51.066;13.768;2023-05-10T07:56:36;2.00;;;1.80;;
19739;SDS011;10027;51.066;13.768;2023-05-10T07:59:04;3.23;;;2.20;;
19739;SDS011;10027;51.066;13.768;2023-05-10T08:01:34;3.30;;;2.43;;
19739;SDS011;10027;51.066;13.768;2023-05-10T08:04:01;2.33;;;2.13;;
19739;SDS011;10027;51.066;13.768;2023-05-10T08:06:29;4.40;;;2.50;;
19739;SDS011;10027;51.066;13.768;2023-05-10T08:08:56;2.27;;;2.07;;
19739;SDS011;10027;51.066;13.768;2023-05-10T08:11:23;3.80;;;2.40;;
19739;SDS011;10027;51.066;13.768;2023-05-10T08:13:51;3.87;;;2.00;;
19739;SDS011;10027;51.066;13.768;2023-05-10T08:16:19;2.77;;;2.30;;
19739;SDS011;10027;51.066;13.768;2023-05-10T08:18:47;2.67;;;2.10;;
19739;SDS011;10027;51.066;13.768;2023-05-10T08:21:15;2.97;;;2.33;;
19739;SDS011;10027;51.066;13.768;2023-05-10T08:23:42;2.77;;;2.23;;
19739;SDS011;10027;51.066;13.768;2023-05-10T08:26:12;2.15;;;2.03;;
19739;SDS011;10027;51.066;13.768;2023-05-10T08:28:40;3.33;;;2.33;;
19739;SDS011;10027;51.066;13.768;2023-05-10T08:31:07;2.35;;;2.10;;
19739;SDS011;10027;51.066;13.768;2023-05-10T08:33:34;2.60;;;2.40;;
19739;SDS011;10027;51.066;13.768;2023-05-10T08:36:01;2.65;;;2.45;;
19739;SDS011;10027;51.066;13.768;2023-05-10T08:38:28;5.57;;;2.47;;
19739;SDS011;10027;51.066;13.768;2023-05-10T08:40:55;3.45;;;2.45;;
19739;SDS011;10027;51.066;13.768;2023-05-10T08:43:23;2.35;;;2.15;;
19739;SDS011;10027;51.066;13.768;2023-05-10T08:45:53;2.58;;;2.38;;
19739;SDS011;10027;51.066;13.768;2023-05-10T08:48:23;2.97;;;2.50;;
19739;SDS011;10027;51.066;13.768;2023-05-10T08:50:52;3.92;;;2.72;;
19739;SDS011;10027;51.066;13.768;2023-05-10T08:53:21;2.50;;;2.30;;
19739;SDS011;10027;51.066;13.768;2023-05-10T08:55:49;3.78;;;2.50;;
19739;SDS011;10027;51.066;13.768;2023-05-10T08:58:17;2.70;;;2.50;;
19739;SDS011;10027;51.066;13.768;2023-05-10T09:00:45;3.53;;;2.70;;
19739;SDS011;10027;51.066;13.768;2023-05-10T09:03:13;3.00;;;2.70;;
19739;SDS011;10027;51.066;13.768;2023-05-10T09:05:41;5.53;;;2.72;;
19739;SDS011;10027;51.066;13.768;2023-05-10T09:08:08;2.57;;;2.37;;
19739;SDS011;10027;51.066;13.768;2023-05-10T09:10:36;2.50;;;2.30;;
19739;SDS011;10027;51.066;13.768;2023-05-10T09:13:03;2.80;;;2.57;;
19739;SDS011;10027;51.066;13.768;2023-05-10T09:15:31;2.70;;;2.50;;
19739;SDS011;10027;51.066;13.768;2023-05-10T09:17:58;2.80;;;2.60;;
19739;SDS011;10027;51.066;13.768;2023-05-10T09:20:28;2.93;;;2.60;;
19739;SDS011;10027;51.066;13.768;2023-05-10T09:22:55;2.57;;;2.37;;
19739;SDS011;10027;51.066;13.768;2023-05-10T09:25:22;4.17;;;2.57;;
19739;SDS011;10027;51.066;13.768;2023-05-10T09:27:49;2.50;;;2.30;;
19739;SDS011;10027;51.066;13.768;2023-05-10T09:30:17;3.00;;;2.70;;
19739;SDS011;10027;51.066;13.768;2023-05-10T09:32:50;2.30;;;2.10;;
19739;SDS011;10027;51.066;13.768;2023-05-10T09:35:18;2.70;;;2.50;;
19739;SDS011;10027;51.066;13.768;2023-05-10T09:37:46;3.27;;;2.37;;
19739;SDS011;10027;51.066;13.768;2023-05-10T09:40:20;3.13;;;2.50;;
19739;SDS011;10027;51.066;13.768;2023-05-10T09:42:57;2.93;;;2.70;;
19739;SDS011;10027;51.066;13.768;2023-05-10T09:45:26;3.30;;;2.63;;
19739;SDS011;10027;51.066;13.768;2023-05-10T09:47:53;4.43;;;2.53;;
19739;SDS011;10027;51.066;13.768;2023-05-10T09:50:21;3.10;;;2.60;;
19739;SDS011;10027;51.066;13.768;2023-05-10T09:52:58;3.30;;;3.00;;
19739;SDS011;10027;51.066;13.768;2023-05-10T09:55:27;2.90;;;2.03;;
19739;SDS011;10027;51.066;13.768;2023-05-10T09:58:04;2.80;;;2.40;;
19739;SDS011;10027;51.066;13.768;2023-05-10T10:00:39;3.03;;;2.50;;
19739;SDS011;10027;51.066;13.768;2023-05-10T10:03:11;2.70;;;2.37;;
19739;SDS011;10027;51.066;13.768;2023-05-10T10:05:39;3.10;;;2.80;;
19739;SDS011;10027;51.066;13.768;2023-05-10T10:08:07;4.33;;;2.40;;
19739;SDS011;10027;51.066;13.768;2023-05-10T10:10:34;3.13;;;2.83;;
19739;SDS011;10027;51.066;13.768;2023-05-10T10:13:01;2.73;;;2.47;;
19739;SDS011;10027;51.066;13.768;2023-05-10T10:15:28;3.17;;;2.73;;
19739;SDS011;10027;51.066;13.768;2023-05-10T10:17:56;3.23;;;2.90;;
19739;SDS011;10027;51.066;13.768;2023-05-10T10:20:23;3.13;;;2.60;;
19739;SDS011;10027;51.066;13.768;2023-05-10T10:22:51;5.90;;;2.50;;
19739;SDS011;10027;51.066;13.768;2023-05-10T10:25:19;3.50;;;2.60;;
19739;SDS011;10027;51.066;13.768;2023-05-10T10:30:25;3.00;;;2.70;;
19739;SDS011;10027;51.066;13.768;2023-05-10T10:35:24;3.33;;;3.00;;
19739;SDS011;10027;51.066;13.768;2023-05-10T10:37:51;4.73;;;2.53;;
19739;SDS011;10027;51.066;13.768;2023-05-10T10:40:28;2.70;;;2.50;;
19739;SDS011;10027;51.066;13.768;2023-05-10T10:43:20;4.00;;;2.87;;
19739;SDS011;10027;51.066;13.768;2023-05-10T10:48:32;3.60;;;2.70;;
19739;SDS011;10027;51.066;13.768;2023-05-10T10:50:59;3.87;;;2.60;;
19739;SDS011;10027;51.066;13.768;2023-05-10T10:53:27;3.17;;;2.30;;
19739;SDS011;10027;51.066;13.768;2023-05-10T10:56:07;2.87;;;2.40;;
19739;SDS011;10027;51.066;13.768;2023-05-10T10:58:36;2.63;;;2.43;;
19739;SDS011;10027;51.066;13.768;2023-05-10T11:01:11;2.80;;;2.60;;
19739;SDS011;10027;51.066;13.768;2023-05-10T11:03:39;2.57;;;2.37;;
19739;SDS011;10027;51.066;13.768;2023-05-10T11:06:07;3.43;;;2.70;;
19739;SDS011;10027;51.066;13.768;2023-05-10T11:08:41;3.50;;;2.37;;
19739;SDS011;10027;51.066;13.768;2023-05-10T11:11:14;3.10;;;2.60;;
19739;SDS011;10027;51.066;13.768;2023-05-10T11:13:42;2.90;;;2.60;;
19739;SDS011;10027;51.066;13.768;2023-05-10T11:16:16;2.63;;;2.40;;
19739;SDS011;10027;51.066;13.768;2023-05-10T11:18:54;4.07;;;2.70;;
19739;SDS011;10027;51.066;13.768;2023-05-10T11:21:23;3.00;;;2.40;;
19739;SDS011;10027;51.066;13.768;2023-05-10T11:23:54;3.37;;;2.53;;
19739;SDS011;10027;51.066;13.768;2023-05-10T11:26:23;2.63;;;2.43;;
19739;SDS011;10027;51.066;13.768;2023-05-10T11:28:52;2.60;;;2.40;;
19739;SDS011;10027;51.066;13.768;2023-05-10T11:31:22;3.10;;;2.80;;
19739;SDS011;10027;51.066;13.768;2023-05-10T11:33:53;3.23;;;2.53;;
19739;SDS011;10027;51.066;13.768;2023-05-10T11:36:23;3.93;;;3.13;;
19739;SDS011;10027;51.066;13.768;2023-05-10T11:38:52;3.33;;;2.70;;
19739;SDS011;10027;51.066;13.768;2023-05-10T11:41:19;3.00;;;2.70;;
19739;SDS011;10027;51.066;13.768;2023-05-10T11:43:51;3.00;;;2.70;;
19739;SDS011;10027;51.066;13.768;2023-05-10T11:46:19;2.80;;;2.60;;
19739;SDS011;10027;51.066;13.768;2023-05-10T11:48:47;3.37;;;2.63;;
19739;SDS011;10027;51.066;13.768;2023-05-10T11:51:19;3.83;;;2.43;;
19739;SDS011;10027;51.066;13.768;2023-05-10T11:53:47;3.60;;;2.50;;
19739;SDS011;10027;51.066;13.768;2023-05-10T11:56:16;2.70;;;2.50;;
19739;SDS011;10027;51.066;13.768;2023-05-10T11:58:43;3.07;;;2.53;;
19739;SDS011;10027;51.066;13.768;2023-05-10T12:01:11;3.13;;;2.70;;
19739;SDS011;10027;51.066;13.768;2023-05-10T12:03:38;3.53;;;2.40;;
19739;SDS011;10027;51.066;13.768;2023-05-10T12:06:07;2.80;;;2.47;;
19739;SDS011;10027;51.066;13.768;2023-05-10T12:08:34;2.60;;;2.40;;
19739;SDS011;10027;51.066;13.768;2023-05-10T12:11:08;5.77;;;3.07;;
19739;SDS011;10027;51.066;13.768;2023-05-10T12:13:40;3.03;;;2.40;;
19739;SDS011;10027;51.066;13.768;2023-05-10T12:18:41;2.97;;;2.67;;
19739;SDS011;10027;51.066;13.768;2023-05-10T12:21:09;3.17;;;2.47;;
19739;SDS011;10027;51.066;13.768;2023-05-10T12:23:40;3.13;;;2.37;;
19739;SDS011;10027;51.066;13.768;2023-05-10T12:26:10;2.63;;;2.30;;
19739;SDS011;10027;51.066;13.768;2023-05-10T12:28:38;3.43;;;2.60;;
19739;SDS011;10027;51.066;13.768;2023-05-10T12:31:08;3.10;;;2.60;;
19739;SDS011;10027;51.066;13.768;2023-05-10T12:33:42;3.20;;;2.90;;
19739;SDS011;10027;51.066;13.768;2023-05-10T12:36:13;3.43;;;2.90;;
19739;SDS011;10027;51.066;13.768;2023-05-10T12:38:41;3.40;;;2.97;;
19739;SDS011;10027;51.066;13.768;2023-05-10T12:41:12;2.73;;;2.53;;
19739;SDS011;10027;51.066;13.768;2023-05-10T12:43:40;3.20;;;2.90;;
19739;SDS011;10027;51.066;13.768;2023-05-10T12:46:08;3.00;;;2.80;;
19739;SDS011;10027;51.066;13.768;2023-05-10T12:48:35;3.10;;;2.80;;
19739;SDS011;10027;51.066;13.768;2023-05-10T12:51:03;2.73;;;2.53;;
19739;SDS011;10027;51.066;13.768;2023-05-10T12:53:31;2.90;;;2.70;;
19739;SDS011;10027;51.066;13.768;2023-05-10T12:55:58;3.33;;;2.80;;
19739;SDS011;10027;51.066;13.768;2023-05-10T12:58:25;3.30;;;3.00;;
19739;SDS011;10027;51.066;13.768;2023-05-10T13:01:01;3.80;;;2.83;;
19739;SDS011;10027;51.066;13.768;2023-05-10T13:03:29;2.70;;;2.50;;
19739;SDS011;10027;51.066;13.768;2023-05-10T13:05:56;3.20;;;2.70;;
19739;SDS011;10027;51.066;13.768;2023-05-10T13:08:23;3.00;;;2.70;;
19739;SDS011;10027;51.066;13.768;2023-05-10T13:10:51;2.70;;;2.50;;
19739;SDS011;10027;51.066;13.768;2023-05-10T13:13:18;3.03;;;2.60;;
19739;SDS011;10027;51.066;13.768;2023-05-10T13:15:45;3.20;;;2.90;;
19739;SDS011;10027;51.066;13.768;2023-05-10T13:18:12;3.47;;;2.90;;
19739;SDS011;10027;51.066;13.768;2023-05-10T13:20:40;6.03;;;2.87;;
19739;SDS011;10027;51.066;13.768;2023-05-10T13:23:07;3.17;;;2.40;;
19739;SDS011;10027;51.066;13.768;2023-05-10T13:25:34;3.10;;;2.60;;
19739;SDS011;10027;51.066;13.768;2023-05-10T13:28:01;2.77;;;2.40;;
19739;SDS011;10027;51.066;13.768;2023-05-10T13:30:28;3.47;;;2.57;;
19739;SDS011;10027;51.066;13.768;2023-05-10T13:32:55;2.83;;;2.53;;
19739;SDS011;10027;51.066;13.768;2023-05-10T13:35:23;3.30;;;2.47;;
19739;SDS011;10027;51.066;13.768;2023-05-10T13:37:50;3.07;;;2.80;;
19739;SDS011;10027;51.066;13.768;2023-05-10T13:40:19;3.17;;;2.60;;
19739;SDS011;10027;51.066;13.768;2023-05-10T13:42:46;3.53;;;2.50;;
19739;SDS011;10027;51.066;13.768;2023-05-10T13:45:13;3.13;;;2.70;;
19739;SDS011;10027;51.066;13.768;2023-05-10T13:47:41;3.17;;;2.53;;
19739;SDS011;10027;51.066;13.768;2023-05-10T13:50:08;3.27;;;2.40;;
19739;SDS011;10027;51.066;13.768;2023-05-10T13:52:35;6.30;;;2.93;;
19739;SDS011;10027;51.066;13.768;2023-05-10T13:55:03;3.13;;;2.80;;
19739;SDS011;10027;51.066;13.768;2023-05-10T13:57:30;2.83;;;2.53;;
19739;SDS011;10027;51.066;13.768;2023-05-10T13:59:57;3.60;;;2.70;;
19739;SDS011;10027;51.066;13.768;2023-05-10T14:02:24;2.97;;;2.30;;
19739;SDS011;10027;51.066;13.768;2023-05-10T14:04:53;2.90;;;2.60;;
19739;SDS011;10027;51.066;13.768;2023-05-10T14:07:20;2.60;;;2.23;;
19739;SDS011;10027;51.066;13.768;2023-05-10T14:09:47;2.50;;;2.30;;
19739;SDS011;10027;51.066;13.768;2023-05-10T14:12:15;3.10;;;2.80;;
19739;SDS011;10027;51.066;13.768;2023-05-10T14:14:42;3.77;;;2.50;;
19739;SDS011;10027;51.066;13.768;2023-05-10T14:17:09;2.70;;;2.50;;
19739;SDS011;10027;51.066;13.768;2023-05-10T14:19:37;2.80;;;2.60;;
19739;SDS011;10027;51.066;13.768;2023-05-10T14:22:05;3.60;;;2.63;;
19739;SDS011;10027;51.066;13.768;2023-05-10T14:24:32;3.43;;;2.57;;
19739;SDS011;10027;51.066;13.768;2023-05-10T14:26:59;5.93;;;2.40;;
19739;SDS011;10027;51.066;13.768;2023-05-10T14:29:26;2.57;;;2.20;;
19739;SDS011;10027;51.066;13.768;2023-05-10T14:31:54;4.37;;;2.40;;
19739;SDS011;10027;51.066;13.768;2023-05-10T14:34:21;4.30;;;2.50;;
19739;SDS011;10027;51.066;13.768;2023-05-10T14:36:48;2.90;;;2.60;;
19739;SDS011;10027;51.066;13.768;2023-05-10T14:39:15;2.40;;;2.20;;
19739;SDS011;10027;51.066;13.768;2023-05-10T14:41:43;2.90;;;2.60;;
19739;SDS011;10027;51.066;13.768;2023-05-10T14:44:11;6.47;;;2.53;;
19739;SDS011;10027;51.066;13.768;2023-05-10T14:46:39;2.70;;;2.13;;
19739;SDS011;10027;51.066;13.768;2023-05-10T14:49:06;3.87;;;2.23;;
19739;SDS011;10027;51.066;13.768;2023-05-10T14:51:33;2.70;;;2.43;;
19739;SDS011;10027;51.066;13.768;2023-05-10T14:54:02;2.30;;;2.10;;
19739;SDS011;10027;51.066;13.768;2023-05-10T14:56:29;2.60;;;2.33;;
19739;SDS011;10027;51.066;13.768;2023-05-10T14:58:57;2.83;;;2.57;;
19739;SDS011;10027;51.066;13.768;2023-05-10T15:01:24;2.63;;;2.30;;
19739;SDS011;10027;51.066;13.768;2023-05-10T15:03:53;2.97;;;2.67;;
19739;SDS011;10027;51.066;13.768;2023-05-10T15:06:25;3.10;;;2.53;;